sensor_id;sensor_type;location;lat;lon;timestamp;P1;durP1;ratioP1;P2;durP2;ratioP2
18206;SDS011;9229;52.354;20.886;2023-09-07T00:02:53;10.15;;;6.55;;
18206;SDS011;9229;52.354;20.886;2023-09-07T00:07:56;10.63;;;6.55;;
18206;SDS011;9229;52.354;20.886;2023-09-07T00:12:58;13.85;;;5.88;;
18206;SDS011;9229;52.354;20.886;2023-09-07T00:18:02;6.75;;;5.50;;
18206;SDS011;9229;52.354;20.886;2023-09-07T00:23:06;10.52;;;6.05;;
18206;SDS011;9229;52.354;20.886;2023-09-07T00:28:08;8.43;;;5.75;;
18206;SDS011;9229;52.354;20.886;2023-09-07T00:33:10;7.78;;;5.90;;
18206;SDS011;9229;52.354;20.886;2023-09-07T00:38:13;9.60;;;5.93;;
18206;SDS011;9229;52.354;20.886;2023-09-07T00:43:16;6.10;;;5.50;;
18206;SDS011;9229;52.354;20.886;2023-09-07T00:48:18;6.63;;;5.78;;
18206;SDS011;9229;52.354;20.886;2023-09-07T00:53:22;11.13;;;6.32;;
18206;SDS011;9229;52.354;20.886;2023-09-07T00:58:25;12.63;;;6.10;;
18206;SDS011;9229;52.354;20.886;2023-09-07T01:03:27;8.38;;;6.20;;
18206;SDS011;9229;52.354;20.886;2023-09-07T01:08:35;11.63;;;5.75;;
18206;SDS011;9229;52.354;20.886;2023-09-07T01:13:41;7.38;;;6.15;;
18206;SDS011;9229;52.354;20.886;2023-09-07T01:18:43;17.45;;;6.90;;
18206;SDS011;9229;52.354;20.886;2023-09-07T01:23:48;42.15;;;8.18;;
18206;SDS011;9229;52.354;20.886;2023-09-07T01:28:51;29.10;;;7.57;;
18206;SDS011;9229;52.354;20.886;2023-09-07T01:33:53;28.90;;;6.63;;
18206;SDS011;9229;52.354;20.886;2023-09-07T01:38:57;10.43;;;7.22;;
18206;SDS011;9229;52.354;20.886;2023-09-07T01:43:59;16.15;;;6.82;;
18206;SDS011;9229;52.354;20.886;2023-09-07T01:49:01;18.33;;;6.90;;
18206;SDS011;9229;52.354;20.886;2023-09-07T01:54:04;15.80;;;6.22;;
18206;SDS011;9229;52.354;20.886;2023-09-07T01:59:07;12.88;;;6.78;;
18206;SDS011;9229;52.354;20.886;2023-09-07T02:04:10;15.93;;;7.00;;
18206;SDS011;9229;52.354;20.886;2023-09-07T02:09:14;12.13;;;6.40;;
18206;SDS011;9229;52.354;20.886;2023-09-07T02:14:16;11.50;;;6.45;;
18206;SDS011;9229;52.354;20.886;2023-09-07T02:19:22;8.63;;;6.43;;
18206;SDS011;9229;52.354;20.886;2023-09-07T02:24:27;7.10;;;5.53;;
18206;SDS011;9229;52.354;20.886;2023-09-07T02:29:30;7.35;;;5.22;;
18206;SDS011;9229;52.354;20.886;2023-09-07T02:34:32;9.55;;;5.78;;
18206;SDS011;9229;52.354;20.886;2023-09-07T02:39:38;11.90;;;6.78;;
18206;SDS011;9229;52.354;20.886;2023-09-07T02:44:42;19.40;;;6.75;;
18206;SDS011;9229;52.354;20.886;2023-09-07T02:49:44;7.75;;;6.70;;
18206;SDS011;9229;52.354;20.886;2023-09-07T02:54:48;10.20;;;6.40;;
18206;SDS011;9229;52.354;20.886;2023-09-07T02:59:50;6.75;;;6.20;;
18206;SDS011;9229;52.354;20.886;2023-09-07T03:04:54;7.95;;;6.75;;
18206;SDS011;9229;52.354;20.886;2023-09-07T03:10:00;7.63;;;6.82;;
18206;SDS011;9229;52.354;20.886;2023-09-07T03:15:03;10.35;;;6.32;;
18206;SDS011;9229;52.354;20.886;2023-09-07T03:20:07;11.35;;;6.32;;
18206;SDS011;9229;52.354;20.886;2023-09-07T03:25:16;11.45;;;6.68;;
18206;SDS011;9229;52.354;20.886;2023-09-07T03:30:19;10.23;;;7.13;;
18206;SDS011;9229;52.354;20.886;2023-09-07T03:35:22;7.10;;;6.03;;
18206;SDS011;9229;52.354;20.886;2023-09-07T03:40:27;9.30;;;6.80;;
18206;SDS011;9229;52.354;20.886;2023-09-07T03:45:31;12.15;;;7.22;;
18206;SDS011;9229;52.354;20.886;2023-09-07T03:50:34;10.23;;;6.53;;
18206;SDS011;9229;52.354;20.886;2023-09-07T03:55:43;10.55;;;6.93;;
18206;SDS011;9229;52.354;20.886;2023-09-07T04:00:49;10.80;;;6.90;;
18206;SDS011;9229;52.354;20.886;2023-09-07T04:05:56;8.98;;;6.57;;
18206;SDS011;9229;52.354;20.886;2023-09-07T04:11:02;10.95;;;6.93;;
18206;SDS011;9229;52.354;20.886;2023-09-07T04:16:16;18.08;;;7.22;;
18206;SDS011;9229;52.354;20.886;2023-09-07T04:21:19;11.43;;;6.43;;
18206;SDS011;9229;52.354;20.886;2023-09-07T04:26:24;13.73;;;6.45;;
18206;SDS011;9229;52.354;20.886;2023-09-07T04:31:29;17.95;;;7.15;;
18206;SDS011;9229;52.354;20.886;2023-09-07T04:36:34;15.07;;;6.80;;
18206;SDS011;9229;52.354;20.886;2023-09-07T04:41:40;8.10;;;6.82;;
18206;SDS011;9229;52.354;20.886;2023-09-07T04:46:49;11.77;;;6.43;;
18206;SDS011;9229;52.354;20.886;2023-09-07T04:51:53;9.60;;;7.13;;
18206;SDS011;9229;52.354;20.886;2023-09-07T04:57:01;12.73;;;6.70;;
18206;SDS011;9229;52.354;20.886;2023-09-07T05:02:03;9.57;;;6.93;;
18206;SDS011;9229;52.354;20.886;2023-09-07T05:07:05;9.10;;;7.32;;
18206;SDS011;9229;52.354;20.886;2023-09-07T05:12:09;15.45;;;10.75;;
18206;SDS011;9229;52.354;20.886;2023-09-07T05:17:12;18.17;;;12.88;;
18206;SDS011;9229;52.354;20.886;2023-09-07T05:22:14;18.98;;;13.32;;
18206;SDS011;9229;52.354;20.886;2023-09-07T05:27:17;20.45;;;15.52;;
18206;SDS011;9229;52.354;20.886;2023-09-07T05:32:19;26.80;;;16.75;;
18206;SDS011;9229;52.354;20.886;2023-09-07T05:37:21;24.02;;;17.60;;
18206;SDS011;9229;52.354;20.886;2023-09-07T05:42:25;27.63;;;16.63;;
18206;SDS011;9229;52.354;20.886;2023-09-07T05:47:27;22.05;;;15.88;;
18206;SDS011;9229;52.354;20.886;2023-09-07T05:52:29;24.70;;;15.20;;
18206;SDS011;9229;52.354;20.886;2023-09-07T05:57:33;26.55;;;16.60;;
18206;SDS011;9229;52.354;20.886;2023-09-07T06:02:39;25.05;;;16.33;;
18206;SDS011;9229;52.354;20.886;2023-09-07T06:07:45;30.52;;;16.85;;
18206;SDS011;9229;52.354;20.886;2023-09-07T06:12:54;26.52;;;16.63;;
18206;SDS011;9229;52.354;20.886;2023-09-07T06:17:57;26.20;;;16.35;;
18206;SDS011;9229;52.354;20.886;2023-09-07T06:22:59;20.98;;;14.85;;
18206;SDS011;9229;52.354;20.886;2023-09-07T06:28:08;23.40;;;14.40;;
18206;SDS011;9229;52.354;20.886;2023-09-07T06:33:10;21.33;;;14.43;;
18206;SDS011;9229;52.354;20.886;2023-09-07T06:38:12;27.55;;;14.40;;
18206;SDS011;9229;52.354;20.886;2023-09-07T06:43:18;21.00;;;14.30;;
18206;SDS011;9229;52.354;20.886;2023-09-07T06:48:20;22.65;;;14.48;;
18206;SDS011;9229;52.354;20.886;2023-09-07T06:53:22;21.17;;;13.30;;
18206;SDS011;9229;52.354;20.886;2023-09-07T06:58:25;25.13;;;13.18;;
18206;SDS011;9229;52.354;20.886;2023-09-07T07:03:30;19.50;;;12.32;;
18206;SDS011;9229;52.354;20.886;2023-09-07T07:08:32;15.52;;;11.77;;
18206;SDS011;9229;52.354;20.886;2023-09-07T07:13:36;16.88;;;11.85;;
18206;SDS011;9229;52.354;20.886;2023-09-07T07:18:38;20.20;;;10.98;;
18206;SDS011;9229;52.354;20.886;2023-09-07T07:23:45;15.13;;;10.45;;
18206;SDS011;9229;52.354;20.886;2023-09-07T07:28:49;20.63;;;10.32;;
18206;SDS011;9229;52.354;20.886;2023-09-07T07:33:52;16.83;;;9.77;;
18206;SDS011;9229;52.354;20.886;2023-09-07T07:38:55;13.40;;;9.07;;
18206;SDS011;9229;52.354;20.886;2023-09-07T07:43:59;13.75;;;8.77;;
18206;SDS011;9229;52.354;20.886;2023-09-07T07:49:01;15.10;;;9.38;;
18206;SDS011;9229;52.354;20.886;2023-09-07T07:54:04;9.88;;;8.68;;
18206;SDS011;9229;52.354;20.886;2023-09-07T07:59:08;9.98;;;8.43;;
18206;SDS011;9229;52.354;20.886;2023-09-07T08:04:11;14.85;;;7.95;;
18206;SDS011;9229;52.354;20.886;2023-09-07T08:09:14;12.63;;;8.05;;
18206;SDS011;9229;52.354;20.886;2023-09-07T08:14:19;11.52;;;7.78;;
18206;SDS011;9229;52.354;20.886;2023-09-07T08:19:22;9.48;;;7.20;;
18206;SDS011;9229;52.354;20.886;2023-09-07T08:24:25;9.57;;;7.30;;
18206;SDS011;9229;52.354;20.886;2023-09-07T08:29:28;11.75;;;7.15;;
18206;SDS011;9229;52.354;20.886;2023-09-07T08:34:32;9.38;;;6.15;;
18206;SDS011;9229;52.354;20.886;2023-09-07T08:39:37;13.30;;;6.00;;
18206;SDS011;9229;52.354;20.886;2023-09-07T08:44:41;9.70;;;5.70;;
18206;SDS011;9229;52.354;20.886;2023-09-07T08:49:47;6.18;;;5.63;;
18206;SDS011;9229;52.354;20.886;2023-09-07T08:54:50;6.95;;;5.72;;
18206;SDS011;9229;52.354;20.886;2023-09-07T08:59:57;5.45;;;4.90;;
18206;SDS011;9229;52.354;20.886;2023-09-07T09:04:58;6.80;;;5.68;;
18206;SDS011;9229;52.354;20.886;2023-09-07T09:10:04;5.30;;;4.68;;
18206;SDS011;9229;52.354;20.886;2023-09-07T09:15:09;8.48;;;4.72;;
18206;SDS011;9229;52.354;20.886;2023-09-07T09:20:19;5.03;;;4.57;;
18206;SDS011;9229;52.354;20.886;2023-09-07T09:25:23;4.72;;;4.32;;
18206;SDS011;9229;52.354;20.886;2023-09-07T09:30:28;5.78;;;4.22;;
18206;SDS011;9229;52.354;20.886;2023-09-07T09:35:30;5.82;;;4.10;;
18206;SDS011;9229;52.354;20.886;2023-09-07T09:40:32;22.48;;;4.43;;
18206;SDS011;9229;52.354;20.886;2023-09-07T09:45:37;5.78;;;4.05;;
18206;SDS011;9229;52.354;20.886;2023-09-07T09:50:39;4.30;;;4.00;;
18206;SDS011;9229;52.354;20.886;2023-09-07T09:55:43;4.70;;;3.75;;
18206;SDS011;9229;52.354;20.886;2023-09-07T10:00:48;4.00;;;3.60;;
18206;SDS011;9229;52.354;20.886;2023-09-07T10:05:52;3.60;;;3.40;;
18206;SDS011;9229;52.354;20.886;2023-09-07T10:10:54;4.03;;;3.63;;
18206;SDS011;9229;52.354;20.886;2023-09-07T10:16:01;5.20;;;3.80;;
18206;SDS011;9229;52.354;20.886;2023-09-07T10:21:05;6.05;;;3.72;;
18206;SDS011;9229;52.354;20.886;2023-09-07T10:26:10;3.65;;;3.35;;
18206;SDS011;9229;52.354;20.886;2023-09-07T10:31:15;3.88;;;3.15;;
18206;SDS011;9229;52.354;20.886;2023-09-07T10:36:21;4.03;;;3.60;;
18206;SDS011;9229;52.354;20.886;2023-09-07T10:41:24;3.42;;;3.30;;
18206;SDS011;9229;52.354;20.886;2023-09-07T10:46:27;3.80;;;3.55;;
18206;SDS011;9229;52.354;20.886;2023-09-07T10:51:29;7.25;;;3.75;;
18206;SDS011;9229;52.354;20.886;2023-09-07T10:56:31;6.53;;;3.75;;
18206;SDS011;9229;52.354;20.886;2023-09-07T11:01:34;10.38;;;3.53;;
18206;SDS011;9229;52.354;20.886;2023-09-07T11:06:36;3.30;;;3.00;;
18206;SDS011;9229;52.354;20.886;2023-09-07T11:11:39;7.50;;;3.20;;
18206;SDS011;9229;52.354;20.886;2023-09-07T11:16:44;9.45;;;3.03;;
18206;SDS011;9229;52.354;20.886;2023-09-07T11:21:46;5.80;;;2.83;;
18206;SDS011;9229;52.354;20.886;2023-09-07T11:26:48;2.70;;;2.47;;
18206;SDS011;9229;52.354;20.886;2023-09-07T11:31:52;2.70;;;2.60;;
18206;SDS011;9229;52.354;20.886;2023-09-07T11:36:53;2.58;;;2.30;;
18206;SDS011;9229;52.354;20.886;2023-09-07T11:41:57;2.70;;;2.42;;
18206;SDS011;9229;52.354;20.886;2023-09-07T11:47:03;5.97;;;2.60;;
18206;SDS011;9229;52.354;20.886;2023-09-07T11:52:05;9.50;;;2.95;;
18206;SDS011;9229;52.354;20.886;2023-09-07T11:57:09;4.10;;;2.92;;
18206;SDS011;9229;52.354;20.886;2023-09-07T12:02:12;95.13;;;11.52;;
18206;SDS011;9229;52.354;20.886;2023-09-07T12:07:15;11.15;;;2.80;;
18206;SDS011;9229;52.354;20.886;2023-09-07T12:12:17;2.60;;;2.40;;
18206;SDS011;9229;52.354;20.886;2023-09-07T12:17:20;2.50;;;2.35;;
18206;SDS011;9229;52.354;20.886;2023-09-07T12:22:22;8.60;;;2.90;;
18206;SDS011;9229;52.354;20.886;2023-09-07T12:27:24;13.35;;;3.95;;
18206;SDS011;9229;52.354;20.886;2023-09-07T12:32:27;4.13;;;2.85;;
18206;SDS011;9229;52.354;20.886;2023-09-07T12:37:29;2.20;;;2.10;;
18206;SDS011;9229;52.354;20.886;2023-09-07T12:42:31;2.67;;;2.55;;
18206;SDS011;9229;52.354;20.886;2023-09-07T12:47:38;3.83;;;2.35;;
18206;SDS011;9229;52.354;20.886;2023-09-07T12:52:41;2.42;;;2.10;;
18206;SDS011;9229;52.354;20.886;2023-09-07T12:57:51;2.40;;;2.30;;
18206;SDS011;9229;52.354;20.886;2023-09-07T13:10:15;2.25;;;2.13;;
18206;SDS011;9229;52.354;20.886;2023-09-07T13:16:26;4.13;;;2.17;;
18206;SDS011;9229;52.354;20.886;2023-09-07T14:07:07;2.60;;;2.40;;
18206;SDS011;9229;52.354;20.886;2023-09-07T14:12:11;8.45;;;2.80;;
18206;SDS011;9229;52.354;20.886;2023-09-07T14:17:15;2.78;;;2.58;;
18206;SDS011;9229;52.354;20.886;2023-09-07T14:22:22;3.42;;;2.85;;
18206;SDS011;9229;52.354;20.886;2023-09-07T14:27:37;2.85;;;2.72;;
18206;SDS011;9229;52.354;20.886;2023-09-07T14:33:14;3.35;;;2.88;;
18206;SDS011;9229;52.354;20.886;2023-09-07T14:38:50;2.97;;;2.88;;
18206;SDS011;9229;52.354;20.886;2023-09-07T15:03:13;3.95;;;2.65;;
18206;SDS011;9229;52.354;20.886;2023-09-07T15:27:11;3.45;;;2.95;;
18206;SDS011;9229;52.354;20.886;2023-09-07T15:32:40;5.32;;;2.72;;
18206;SDS011;9229;52.354;20.886;2023-09-07T15:56:53;7.68;;;2.90;;
18206;SDS011;9229;52.354;20.886;2023-09-07T16:09:55;5.93;;;3.28;;
18206;SDS011;9229;52.354;20.886;2023-09-07T16:28:20;7.97;;;3.40;;
18206;SDS011;9229;52.354;20.886;2023-09-07T16:41:14;9.80;;;3.55;;
18206;SDS011;9229;52.354;20.886;2023-09-07T17:05:54;12.68;;;4.05;;
18206;SDS011;9229;52.354;20.886;2023-09-07T17:12:01;14.48;;;4.50;;
18206;SDS011;9229;52.354;20.886;2023-09-07T17:36:20;13.52;;;4.65;;
18206;SDS011;9229;52.354;20.886;2023-09-07T17:42:08;14.35;;;4.80;;
18206;SDS011;9229;52.354;20.886;2023-09-07T17:48:08;9.88;;;4.75;;
18206;SDS011;9229;52.354;20.886;2023-09-07T18:05:52;25.40;;;5.28;;
18206;SDS011;9229;52.354;20.886;2023-09-07T18:11:37;19.60;;;4.75;;
18206;SDS011;9229;52.354;20.886;2023-09-07T18:23:03;11.68;;;5.07;;
18206;SDS011;9229;52.354;20.886;2023-09-07T18:28:15;9.90;;;4.43;;
18206;SDS011;9229;52.354;20.886;2023-09-07T18:33:20;58.17;;;7.22;;
18206;SDS011;9229;52.354;20.886;2023-09-07T18:38:31;29.98;;;5.70;;
18206;SDS011;9229;52.354;20.886;2023-09-07T18:43:33;14.90;;;5.20;;
18206;SDS011;9229;52.354;20.886;2023-09-07T18:48:35;14.98;;;6.07;;
18206;SDS011;9229;52.354;20.886;2023-09-07T18:53:39;23.55;;;5.30;;
18206;SDS011;9229;52.354;20.886;2023-09-07T18:58:40;11.30;;;5.55;;
18206;SDS011;9229;52.354;20.886;2023-09-07T19:03:43;23.65;;;6.20;;
18206;SDS011;9229;52.354;20.886;2023-09-07T19:08:48;7.93;;;5.57;;
18206;SDS011;9229;52.354;20.886;2023-09-07T19:13:50;13.50;;;5.35;;
18206;SDS011;9229;52.354;20.886;2023-09-07T19:18:52;6.15;;;5.03;;
18206;SDS011;9229;52.354;20.886;2023-09-07T19:23:56;10.93;;;5.00;;
18206;SDS011;9229;52.354;20.886;2023-09-07T19:28:59;12.45;;;5.47;;
18206;SDS011;9229;52.354;20.886;2023-09-07T19:34:03;12.95;;;6.00;;
18206;SDS011;9229;52.354;20.886;2023-09-07T19:39:08;6.90;;;5.97;;
18206;SDS011;9229;52.354;20.886;2023-09-07T19:44:14;19.45;;;6.57;;
18206;SDS011;9229;52.354;20.886;2023-09-07T19:49:16;9.23;;;6.38;;
18206;SDS011;9229;52.354;20.886;2023-09-07T19:54:21;12.10;;;6.55;;
18206;SDS011;9229;52.354;20.886;2023-09-07T19:59:23;9.45;;;6.28;;
18206;SDS011;9229;52.354;20.886;2023-09-07T20:04:25;19.30;;;7.25;;
18206;SDS011;9229;52.354;20.886;2023-09-07T20:09:29;13.48;;;6.70;;
18206;SDS011;9229;52.354;20.886;2023-09-07T20:14:30;9.05;;;7.20;;
18206;SDS011;9229;52.354;20.886;2023-09-07T20:19:41;17.92;;;6.15;;
18206;SDS011;9229;52.354;20.886;2023-09-07T20:24:45;8.05;;;7.05;;
18206;SDS011;9229;52.354;20.886;2023-09-07T20:29:48;13.30;;;7.28;;
18206;SDS011;9229;52.354;20.886;2023-09-07T20:34:50;12.85;;;6.32;;
18206;SDS011;9229;52.354;20.886;2023-09-07T20:39:54;13.88;;;6.45;;
18206;SDS011;9229;52.354;20.886;2023-09-07T20:44:57;10.43;;;6.80;;
18206;SDS011;9229;52.354;20.886;2023-09-07T20:49:59;21.75;;;7.38;;
18206;SDS011;9229;52.354;20.886;2023-09-07T20:55:02;15.18;;;7.97;;
18206;SDS011;9229;52.354;20.886;2023-09-07T21:00:05;8.45;;;6.75;;
18206;SDS011;9229;52.354;20.886;2023-09-07T21:05:10;12.77;;;7.93;;
18206;SDS011;9229;52.354;20.886;2023-09-07T21:10:13;8.13;;;7.32;;
18206;SDS011;9229;52.354;20.886;2023-09-07T21:15:15;10.63;;;7.97;;
18206;SDS011;9229;52.354;20.886;2023-09-07T21:20:17;11.60;;;7.93;;
18206;SDS011;9229;52.354;20.886;2023-09-07T21:25:21;11.93;;;7.85;;
18206;SDS011;9229;52.354;20.886;2023-09-07T21:30:23;8.68;;;7.78;;
18206;SDS011;9229;52.354;20.886;2023-09-07T21:35:27;10.45;;;7.78;;
18206;SDS011;9229;52.354;20.886;2023-09-07T21:40:30;9.60;;;7.75;;
18206;SDS011;9229;52.354;20.886;2023-09-07T21:45:32;13.27;;;7.10;;
18206;SDS011;9229;52.354;20.886;2023-09-07T21:50:34;9.45;;;7.25;;
18206;SDS011;9229;52.354;20.886;2023-09-07T21:55:37;8.18;;;7.38;;
18206;SDS011;9229;52.354;20.886;2023-09-07T22:00:39;9.93;;;7.95;;
18206;SDS011;9229;52.354;20.886;2023-09-07T22:05:41;12.32;;;7.45;;
18206;SDS011;9229;52.354;20.886;2023-09-07T22:10:46;10.45;;;7.90;;
18206;SDS011;9229;52.354;20.886;2023-09-07T22:15:50;17.15;;;7.47;;
18206;SDS011;9229;52.354;20.886;2023-09-07T22:20:51;12.77;;;7.82;;
18206;SDS011;9229;52.354;20.886;2023-09-07T22:25:55;12.48;;;7.78;;
18206;SDS011;9229;52.354;20.886;2023-09-07T22:31:00;14.23;;;7.07;;
18206;SDS011;9229;52.354;20.886;2023-09-07T22:36:04;8.95;;;7.50;;
18206;SDS011;9229;52.354;20.886;2023-09-07T22:41:08;9.75;;;7.15;;
18206;SDS011;9229;52.354;20.886;2023-09-07T22:46:11;9.95;;;7.28;;
18206;SDS011;9229;52.354;20.886;2023-09-07T22:51:13;16.73;;;7.07;;
18206;SDS011;9229;52.354;20.886;2023-09-07T22:56:19;8.93;;;6.82;;
18206;SDS011;9229;52.354;20.886;2023-09-07T23:01:21;10.25;;;7.07;;
18206;SDS011;9229;52.354;20.886;2023-09-07T23:06:22;10.13;;;7.45;;
18206;SDS011;9229;52.354;20.886;2023-09-07T23:11:26;10.40;;;7.90;;
18206;SDS011;9229;52.354;20.886;2023-09-07T23:16:28;13.57;;;8.68;;
18206;SDS011;9229;52.354;20.886;2023-09-07T23:21:30;8.20;;;7.43;;
18206;SDS011;9229;52.354;20.886;2023-09-07T23:26:33;9.57;;;7.93;;
18206;SDS011;9229;52.354;20.886;2023-09-07T23:31:35;10.48;;;7.88;;
18206;SDS011;9229;52.354;20.886;2023-09-07T23:36:38;8.75;;;7.82;;
18206;SDS011;9229;52.354;20.886;2023-09-07T23:41:43;17.27;;;7.75;;
18206;SDS011;9229;52.354;20.886;2023-09-07T23:46:45;9.85;;;7.95;;
18206;SDS011;9229;52.354;20.886;2023-09-07T23:51:47;11.77;;;8.25;;
18206;SDS011;9229;52.354;20.886;2023-09-07T23:56:50;11.93;;;7.75;;
